Time;durP1;ratioP1;P1;durP2;ratioP2;P2;SDS_P1;SDS_P2;PMS_P1;PMS_P2;Temp;Humidity;BMP_temperature;BMP_pressure;BME280_temperature;BME280_humidity;BME280_pressure;Samples;Min_cycle;Max_cycle;Signal;HPM_P1;HPM_P2
2021/09/23 00:01:15;;;;;;;22.13;17.00;;;;;;;;;;5118233;28;20901;-72
2021/09/23 00:04:02;;;;;;;23.17;15.33;;;;;;;;;;5119145;28;20461;-72
2021/09/23 00:06:29;;;;;;;29.53;17.00;;;;;;;;;;5117913;28;20762;-72
2021/09/23 00:08:57;;;;;;;25.80;18.13;;;;;;;;;;5119070;28;20659;-72
2021/09/23 00:11:25;;;;;;;21.63;16.80;;;;;;;;;;5118856;28;20510;-71
2021/09/23 00:13:54;;;;;;;23.20;17.73;;;;;;;;;;5119063;28;20461;-72
2021/09/23 00:16:22;;;;;;;22.40;16.67;;;;;;;;;;5118944;28;20541;-71
2021/09/23 00:18:51;;;;;;;26.60;18.67;;;;;;;;;;5118953;28;20454;-70
2021/09/23 00:21:19;;;;;;;24.33;15.97;;;;;;;;;;5119455;28;20518;-71
2021/09/23 00:23:48;;;;;;;27.00;17.30;;;;;;;;;;5118912;28;20866;-71
2021/09/23 00:26:15;;;;;;;24.70;17.10;;;;;;;;;;5118041;28;20449;-70
2021/09/23 00:28:44;;;;;;;24.70;17.60;;;;;;;;;;5118067;28;20454;-70
2021/09/23 00:31:13;;;;;;;22.90;16.30;;;;;;;;;;5118121;28;20487;-71
2021/09/23 00:33:41;;;;;;;23.10;17.43;;;;;;;;;;5118313;28;20560;-71
2021/09/23 00:36:08;;;;;;;26.73;17.20;;;;;;;;;;5117842;28;20454;-72
2021/09/23 00:38:36;;;;;;;24.97;18.87;;;;;;;;;;5118846;28;20537;-72
2021/09/23 00:41:04;;;;;;;21.70;17.27;;;;;;;;;;5118178;28;20455;-72
2021/09/23 00:43:32;;;;;;;28.20;18.20;;;;;;;;;;5117974;28;20524;-72
2021/09/23 00:46:00;;;;;;;24.33;19.30;;;;;;;;;;5118442;28;20447;-72
2021/09/23 00:48:30;;;;;;;26.17;17.83;;;;;;;;;;5118371;28;20466;-72
2021/09/23 00:50:58;;;;;;;23.07;16.47;;;;;;;;;;5118339;28;20489;-72
2021/09/23 00:53:27;;;;;;;30.80;17.97;;;;;;;;;;5117642;28;20463;-72
2021/09/23 00:55:57;;;;;;;26.23;17.17;;;;;;;;;;5118148;28;20451;-72
2021/09/23 00:58:26;;;;;;;27.60;18.00;;;;;;;;;;5116818;28;20459;-72
2021/09/23 01:00:53;;;;;;;29.50;19.10;;;;;;;;;;5118366;28;20811;-72
2021/09/23 01:03:22;;;;;;;26.90;18.93;;;;;;;;;;5118616;28;20513;-72
2021/09/23 01:05:51;;;;;;;34.70;20.07;;;;;;;;;;5117378;28;20522;-72
2021/09/23 01:08:21;;;;;;;24.57;17.77;;;;;;;;;;5118207;28;20566;-72
2021/09/23 01:10:49;;;;;;;25.67;17.77;;;;;;;;;;5117869;28;20723;-72
2021/09/23 01:13:19;;;;;;;27.23;19.17;;;;;;;;;;5117472;28;20486;-72
2021/09/23 01:15:47;;;;;;;25.27;16.93;;;;;;;;;;5118117;28;20545;-72
2021/09/23 01:18:15;;;;;;;29.50;20.60;;;;;;;;;;5116940;28;20469;-72
2021/09/23 01:20:44;;;;;;;24.97;18.53;;;;;;;;;;5117651;28;20431;-73
2021/09/23 01:23:14;;;;;;;26.93;18.10;;;;;;;;;;5117626;27;20486;-72
2021/09/23 01:25:42;;;;;;;22.40;16.93;;;;;;;;;;5117052;28;20450;-72
2021/09/23 01:28:10;;;;;;;22.23;17.50;;;;;;;;;;5117347;28;20469;-72
2021/09/23 01:30:38;;;;;;;29.50;18.70;;;;;;;;;;5117121;28;20730;-72
2021/09/23 01:33:06;;;;;;;27.87;18.17;;;;;;;;;;5117331;28;20490;-71
2021/09/23 01:35:34;;;;;;;25.17;19.17;;;;;;;;;;5117087;28;20512;-70
2021/09/23 01:38:02;;;;;;;28.30;18.97;;;;;;;;;;5117350;28;20454;-72
2021/09/23 01:40:31;;;;;;;28.23;21.00;;;;;;;;;;5116905;28;20724;-72
2021/09/23 01:42:58;;;;;;;30.97;19.53;;;;;;;;;;5116900;28;20577;-71
2021/09/23 01:45:26;;;;;;;32.33;19.50;;;;;;;;;;5116833;28;20447;-72
2021/09/23 01:47:57;;;;;;;30.87;19.60;;;;;;;;;;5115924;28;20458;-71
2021/09/23 01:50:25;;;;;;;26.23;19.00;;;;;;;;;;5116510;28;20470;-72
2021/09/23 01:52:53;;;;;;;35.53;19.67;;;;;;;;;;5116638;28;20454;-71
2021/09/23 01:55:21;;;;;;;27.60;19.73;;;;;;;;;;5116935;27;21061;-71
2021/09/23 01:57:50;;;;;;;25.77;17.43;;;;;;;;;;5116953;28;20871;-71
2021/09/23 02:00:19;;;;;;;26.10;17.77;;;;;;;;;;5116594;28;20542;-71
2021/09/23 02:02:50;;;;;;;32.23;18.90;;;;;;;;;;5116914;28;20522;-71
2021/09/23 02:05:18;;;;;;;31.03;18.50;;;;;;;;;;5116643;28;20446;-71
2021/09/23 02:07:46;;;;;;;25.50;19.87;;;;;;;;;;5116686;28;20462;-72
2021/09/23 02:10:14;;;;;;;30.47;20.43;;;;;;;;;;5116192;28;20482;-71
2021/09/23 02:12:42;;;;;;;30.27;20.83;;;;;;;;;;5117063;28;20611;-72
2021/09/23 02:15:12;;;;;;;30.27;19.23;;;;;;;;;;5117046;28;20446;-71
2021/09/23 02:17:40;;;;;;;30.43;20.77;;;;;;;;;;5116085;28;20549;-71
2021/09/23 02:20:08;;;;;;;28.10;20.10;;;;;;;;;;5117353;28;20511;-71
2021/09/23 02:22:36;;;;;;;31.67;20.20;;;;;;;;;;5116020;28;20581;-71
2021/09/23 02:25:04;;;;;;;30.43;19.07;;;;;;;;;;5115847;28;20795;-71
2021/09/23 02:27:34;;;;;;;34.03;21.50;;;;;;;;;;5116192;28;20515;-72
2021/09/23 02:30:03;;;;;;;34.37;19.97;;;;;;;;;;5114759;28;20474;-71
2021/09/23 02:32:33;;;;;;;27.47;19.03;;;;;;;;;;5115700;28;20451;-71
2021/09/23 02:35:01;;;;;;;36.97;22.40;;;;;;;;;;5116147;28;20458;-71
2021/09/23 02:37:29;;;;;;;28.17;19.77;;;;;;;;;;5116135;28;20457;-71
2021/09/23 02:39:57;;;;;;;27.53;19.23;;;;;;;;;;5116664;28;20458;-70
2021/09/23 02:42:25;;;;;;;30.00;20.60;;;;;;;;;;5115840;28;20486;-71
2021/09/23 02:44:53;;;;;;;33.93;22.03;;;;;;;;;;5115724;28;20471;-70
2021/09/23 02:47:23;;;;;;;36.47;22.63;;;;;;;;;;5115504;28;20455;-71
2021/09/23 02:49:55;;;;;;;31.93;20.60;;;;;;;;;;5116270;28;20854;-71
2021/09/23 02:52:23;;;;;;;25.53;16.70;;;;;;;;;;5116094;28;20457;-71
2021/09/23 02:54:51;;;;;;;30.43;18.87;;;;;;;;;;5116353;28;20523;-70
2021/09/23 02:57:19;;;;;;;28.00;18.93;;;;;;;;;;5115635;28;20537;-72
2021/09/23 02:59:46;;;;;;;32.10;18.73;;;;;;;;;;5115179;28;20713;-72
2021/09/23 03:02:14;;;;;;;29.53;18.73;;;;;;;;;;5114720;28;20478;-72
2021/09/23 03:04:42;;;;;;;31.40;18.67;;;;;;;;;;5115251;28;20462;-72
2021/09/23 03:07:12;;;;;;;25.53;18.77;;;;;;;;;;5115484;28;20449;-72
2021/09/23 03:09:39;;;;;;;27.73;18.43;;;;;;;;;;5115493;28;20554;-72
2021/09/23 03:12:08;;;;;;;32.47;20.83;;;;;;;;;;5115455;28;20651;-72
2021/09/23 03:14:36;;;;;;;31.83;19.17;;;;;;;;;;5114910;28;20465;-72
2021/09/23 03:17:04;;;;;;;34.53;19.80;;;;;;;;;;5114450;28;20459;-72
2021/09/23 03:19:32;;;;;;;26.60;19.67;;;;;;;;;;5115854;28;20463;-72
2021/09/23 03:22:01;;;;;;;28.60;18.50;;;;;;;;;;5115993;28;20485;-72
2021/09/23 03:24:30;;;;;;;29.70;18.77;;;;;;;;;;5116169;28;20822;-72
2021/09/23 03:26:58;;;;;;;27.50;20.40;;;;;;;;;;5115890;28;20509;-72
2021/09/23 03:29:26;;;;;;;27.57;19.07;;;;;;;;;;5115955;28;20496;-72
2021/09/23 03:31:54;;;;;;;35.87;19.90;;;;;;;;;;5115918;28;20488;-71
2021/09/23 03:34:22;;;;;;;33.27;18.57;;;;;;;;;;5115790;28;20490;-71
2021/09/23 03:36:50;;;;;;;28.47;18.93;;;;;;;;;;5116253;28;20462;-71
2021/09/23 03:39:18;;;;;;;34.23;18.97;;;;;;;;;;5115330;28;20451;-72
2021/09/23 03:41:47;;;;;;;31.50;21.30;;;;;;;;;;5118361;28;20453;-72
2021/09/23 03:44:15;;;;;;;31.83;19.90;;;;;;;;;;5119743;28;20493;-71
2021/09/23 03:46:43;;;;;;;28.97;20.27;;;;;;;;;;5119663;28;20469;-71
2021/09/23 03:49:11;;;;;;;35.03;22.10;;;;;;;;;;5119320;28;20451;-71
2021/09/23 03:51:39;;;;;;;28.70;19.50;;;;;;;;;;5120386;28;20475;-72
2021/09/23 03:54:06;;;;;;;28.47;20.00;;;;;;;;;;5099005;28;20448;-72
2021/09/23 03:56:34;;;;;;;29.40;19.37;;;;;;;;;;5099288;28;20810;-71
2021/09/23 03:59:07;;;;;;;28.27;16.83;;;;;;;;;;5099523;28;20470;-72
2021/09/23 04:01:38;;;;;;;28.40;18.60;;;;;;;;;;5100020;28;20457;-71
2021/09/23 04:04:06;;;;;;;31.43;21.07;;;;;;;;;;5097657;28;20494;-71
2021/09/23 04:06:42;;;;;;;30.23;18.40;;;;;;;;;;5098650;28;20770;-71
2021/09/23 04:09:10;;;;;;;29.70;18.07;;;;;;;;;;5097922;28;20447;-70
2021/09/23 04:11:38;;;;;;;30.33;19.30;;;;;;;;;;5097819;28;20459;-71
2021/09/23 04:14:07;;;;;;;31.90;17.47;;;;;;;;;;5098772;28;20917;-71
2021/09/23 04:16:36;;;;;;;34.83;19.87;;;;;;;;;;5097513;28;20530;-72
2021/09/23 04:19:04;;;;;;;31.30;17.47;;;;;;;;;;5097677;28;20490;-72
2021/09/23 04:21:35;;;;;;;32.03;18.20;;;;;;;;;;5097412;28;20542;-71
2021/09/23 04:24:03;;;;;;;29.93;17.67;;;;;;;;;;5097912;28;20483;-71
2021/09/23 04:26:31;;;;;;;36.10;21.77;;;;;;;;;;5097432;28;20452;-71
2021/09/23 04:28:59;;;;;;;29.77;19.27;;;;;;;;;;5096802;28;20452;-72
2021/09/23 04:31:28;;;;;;;29.17;20.87;;;;;;;;;;5097293;28;20778;-72
2021/09/23 04:33:56;;;;;;;29.70;19.43;;;;;;;;;;5097542;28;20547;-70
2021/09/23 04:36:24;;;;;;;17.23;12.30;;;;;;;;;;5098268;28;20870;-72
2021/09/23 04:38:52;;;;;;;40.70;20.00;;;;;;;;;;5098589;28;20498;-72
2021/09/23 04:41:20;;;;;;;28.60;16.80;;;;;;;;;;5098368;28;20444;-72
2021/09/23 04:43:48;;;;;;;34.17;20.50;;;;;;;;;;5097466;28;20488;-72
2021/09/23 04:46:21;;;;;;;33.07;21.70;;;;;;;;;;5097168;28;20444;-71
2021/09/23 04:48:51;;;;;;;30.60;17.90;;;;;;;;;;5097402;28;20775;-71
2021/09/23 04:51:19;;;;;;;28.83;15.80;;;;;;;;;;5096950;28;20451;-71
2021/09/23 04:53:47;;;;;;;34.20;20.43;;;;;;;;;;5096677;28;20452;-71
2021/09/23 04:56:15;;;;;;;36.87;18.50;;;;;;;;;;5097475;28;20463;-70
2021/09/23 04:58:44;;;;;;;29.90;18.27;;;;;;;;;;5097401;28;20466;-71
2021/09/23 05:01:12;;;;;;;28.90;18.50;;;;;;;;;;5096996;28;20448;-71
2021/09/23 05:03:40;;;;;;;31.57;19.40;;;;;;;;;;5096198;28;21058;-71
2021/09/23 05:06:19;;;;;;;30.63;18.07;;;;;;;;;;5096289;28;20672;-72
2021/09/23 05:08:47;;;;;;;31.70;16.83;;;;;;;;;;5094905;28;20455;-71
2021/09/23 05:11:15;;;;;;;30.80;18.50;;;;;;;;;;5096364;28;20530;-70
2021/09/23 05:13:43;;;;;;;39.10;19.83;;;;;;;;;;5094594;28;20455;-72
2021/09/23 05:16:10;;;;;;;33.17;19.63;;;;;;;;;;5094712;28;20510;-72
2021/09/23 05:18:38;;;;;;;33.43;19.50;;;;;;;;;;5093218;28;20486;-72
2021/09/23 05:21:06;;;;;;;33.70;19.13;;;;;;;;;;5095071;28;20452;-72
2021/09/23 05:23:36;;;;;;;36.80;20.60;;;;;;;;;;5093385;28;21147;-72
2021/09/23 05:26:04;;;;;;;32.53;20.70;;;;;;;;;;5093191;28;20464;-71
2021/09/23 05:28:32;;;;;;;33.57;18.30;;;;;;;;;;5094466;28;20459;-71
2021/09/23 05:31:00;;;;;;;31.53;17.77;;;;;;;;;;5091871;28;20468;-72
2021/09/23 05:33:30;;;;;;;31.77;21.50;;;;;;;;;;5091402;28;20547;-73
2021/09/23 05:36:00;;;;;;;30.20;17.77;;;;;;;;;;5091662;28;20467;-71
2021/09/23 05:38:28;;;;;;;30.63;17.10;;;;;;;;;;5091441;28;20470;-71
2021/09/23 05:41:01;;;;;;;30.20;18.60;;;;;;;;;;5091395;28;20439;-74
2021/09/23 05:43:29;;;;;;;32.97;19.30;;;;;;;;;;5090875;28;20488;-71
2021/09/23 05:45:57;;;;;;;30.37;18.50;;;;;;;;;;5088888;28;20527;-71
2021/09/23 05:48:27;;;;;;;33.07;18.80;;;;;;;;;;5092627;28;20800;-71
2021/09/23 05:50:55;;;;;;;33.43;19.00;;;;;;;;;;5092838;28;20442;-71
2021/09/23 05:53:23;;;;;;;26.47;19.10;;;;;;;;;;5093061;28;20466;-71
2021/09/23 05:55:51;;;;;;;33.43;18.13;;;;;;;;;;5092326;28;20447;-72
2021/09/23 05:58:21;;;;;;;27.83;18.53;;;;;;;;;;5092432;28;20463;-72
2021/09/23 06:00:49;;;;;;;29.60;18.80;;;;;;;;;;5092042;28;20448;-72
2021/09/23 06:03:29;;;;;;;24.17;15.80;;;;;;;;;;5092644;28;20526;-71
2021/09/23 06:05:57;;;;;;;31.17;17.17;;;;;;;;;;5092441;28;20447;-71
2021/09/23 06:08:25;;;;;;;30.70;16.47;;;;;;;;;;5092915;28;20451;-71
2021/09/23 06:10:53;;;;;;;29.83;18.20;;;;;;;;;;5094032;28;20908;-73
2021/09/23 06:13:22;;;;;;;34.00;20.03;;;;;;;;;;5093832;28;20462;-72
2021/09/23 06:15:51;;;;;;;28.47;19.37;;;;;;;;;;5092904;28;20451;-72
2021/09/23 06:18:18;;;;;;;28.03;18.00;;;;;;;;;;5093367;28;20470;-72
2021/09/23 06:20:47;;;;;;;27.10;15.93;;;;;;;;;;5093672;28;20807;-73
2021/09/23 06:23:18;;;;;;;28.50;17.37;;;;;;;;;;5093811;28;21202;-73
2021/09/23 06:25:50;;;;;;;28.13;17.93;;;;;;;;;;5092864;28;20454;-72
2021/09/23 06:28:19;;;;;;;24.37;15.47;;;;;;;;;;5094192;28;20547;-73
2021/09/23 06:30:51;;;;;;;28.33;19.07;;;;;;;;;;5094321;28;20481;-72
2021/09/23 06:33:20;;;;;;;30.33;18.87;;;;;;;;;;5093612;28;20456;-73
2021/09/23 06:35:48;;;;;;;29.70;19.60;;;;;;;;;;5093804;28;20744;-72
2021/09/23 06:38:19;;;;;;;29.50;17.57;;;;;;;;;;5094076;28;20459;-73
2021/09/23 06:40:47;;;;;;;28.00;18.10;;;;;;;;;;5093786;28;20459;-72
2021/09/23 06:43:15;;;;;;;30.10;16.93;;;;;;;;;;5093659;28;20556;-71
2021/09/23 06:45:44;;;;;;;34.23;18.93;;;;;;;;;;5094014;28;20483;-73
2021/09/23 06:48:14;;;;;;;29.10;17.33;;;;;;;;;;5093088;28;20486;-73
2021/09/23 06:50:42;;;;;;;25.33;15.00;;;;;;;;;;5094152;28;20439;-73
2021/09/23 06:53:10;;;;;;;23.53;15.93;;;;;;;;;;5093067;28;20455;-73
2021/09/23 06:55:38;;;;;;;20.97;14.57;;;;;;;;;;5079209;28;20456;-72
2021/09/23 06:58:13;;;;;;;25.30;17.70;;;;;;;;;;5090857;28;20451;-72
2021/09/23 07:00:42;;;;;;;25.43;15.70;;;;;;;;;;5093488;28;20443;-72
2021/09/23 07:03:10;;;;;;;26.20;15.30;;;;;;;;;;5092808;28;20461;-72
2021/09/23 07:05:43;;;;;;;22.97;15.17;;;;;;;;;;5093168;28;21074;-72
2021/09/23 07:08:14;;;;;;;32.50;17.03;;;;;;;;;;5092662;28;20767;-73
2021/09/23 07:10:42;;;;;;;23.30;15.53;;;;;;;;;;5093680;28;21015;-71
2021/09/23 07:13:12;;;;;;;26.80;15.67;;;;;;;;;;5093706;28;20863;-72
2021/09/23 07:15:40;;;;;;;23.53;15.20;;;;;;;;;;5094789;28;20451;-72
2021/09/23 07:18:09;;;;;;;25.30;16.47;;;;;;;;;;5098010;28;20470;-72
2021/09/23 07:20:48;;;;;;;25.87;16.70;;;;;;;;;;5097662;28;20465;-71
2021/09/23 07:23:20;;;;;;;22.53;14.40;;;;;;;;;;5097319;28;20447;-71
2021/09/23 07:25:53;;;;;;;28.50;18.27;;;;;;;;;;5094537;28;20436;-71
2021/09/23 07:28:25;;;;;;;24.17;16.33;;;;;;;;;;5095082;28;20436;-72
2021/09/23 07:30:53;;;;;;;22.43;14.80;;;;;;;;;;5097882;28;20475;-72
2021/09/23 07:33:21;;;;;;;24.83;16.00;;;;;;;;;;5097375;28;20463;-72
2021/09/23 07:35:53;;;;;;;24.53;15.63;;;;;;;;;;5098079;28;20972;-73
2021/09/23 07:38:21;;;;;;;22.57;14.07;;;;;;;;;;5093134;28;20484;-72
2021/09/23 07:40:49;;;;;;;25.30;12.90;;;;;;;;;;5096468;28;20447;-71
2021/09/23 07:43:24;;;;;;;20.87;14.53;;;;;;;;;;5093297;28;20516;-71
2021/09/23 07:45:59;;;;;;;23.07;15.00;;;;;;;;;;5094696;28;20467;-72
2021/09/23 07:48:27;;;;;;;19.57;13.60;;;;;;;;;;5095231;28;20537;-71
2021/09/23 07:50:57;;;;;;;28.73;17.00;;;;;;;;;;5089414;28;20583;-73
2021/09/23 07:53:25;;;;;;;20.63;13.73;;;;;;;;;;5090411;28;20447;-73
2021/09/23 07:55:53;;;;;;;20.90;13.73;;;;;;;;;;5096762;28;20976;-71
2021/09/23 07:58:21;;;;;;;26.53;15.73;;;;;;;;;;5096545;28;20451;-71
2021/09/23 08:00:49;;;;;;;21.30;14.80;;;;;;;;;;5096212;28;20451;-72
2021/09/23 08:03:20;;;;;;;26.50;14.63;;;;;;;;;;5097103;28;20456;-72
2021/09/23 08:05:48;;;;;;;24.30;14.37;;;;;;;;;;5096188;28;20448;-71
2021/09/23 08:08:17;;;;;;;23.30;15.60;;;;;;;;;;5096046;28;20838;-71
2021/09/23 08:10:49;;;;;;;26.53;15.60;;;;;;;;;;5097198;28;21035;-71
2021/09/23 08:13:34;;;;;;;22.77;15.23;;;;;;;;;;5094311;28;20520;-72
2021/09/23 08:16:03;;;;;;;20.30;14.67;;;;;;;;;;5095342;28;20460;-72
2021/09/23 08:18:32;;;;;;;23.90;13.80;;;;;;;;;;5096269;28;20448;-73
2021/09/23 08:21:04;;;;;;;22.50;15.67;;;;;;;;;;5095522;28;20443;-73
2021/09/23 08:23:34;;;;;;;19.80;13.43;;;;;;;;;;5095240;28;20448;-72
2021/09/23 08:26:01;;;;;;;22.90;14.70;;;;;;;;;;5085494;28;20466;-73
2021/09/23 08:28:31;;;;;;;22.93;14.17;;;;;;;;;;5092147;28;20472;-73
2021/09/23 08:30:59;;;;;;;29.13;15.50;;;;;;;;;;5095741;28;20475;-73
2021/09/23 08:33:33;;;;;;;26.53;14.30;;;;;;;;;;5095193;28;20497;-73
2021/09/23 08:36:02;;;;;;;20.37;14.37;;;;;;;;;;5095519;28;20508;-72
2021/09/23 08:38:30;;;;;;;17.07;12.07;;;;;;;;;;5095883;28;20458;-72
2021/09/23 08:40:59;;;;;;;20.03;12.50;;;;;;;;;;5075401;28;20444;-73
2021/09/23 08:43:38;;;;;;;21.27;13.40;;;;;;;;;;5075087;28;20448;-73
2021/09/23 08:46:10;;;;;;;20.03;13.37;;;;;;;;;;5076343;28;20440;-72
2021/09/23 08:48:55;;;;;;;;;;;;;;;;;;;;;
2021/09/23 08:51:28;;;;;;;17.90;10.47;;;;;;;;;;5091954;28;20448;-73
2021/09/23 08:54:00;;;;;;;16.90;12.10;;;;;;;;;;5095959;28;20456;-73
2021/09/23 08:56:29;;;;;;;16.00;9.90;;;;;;;;;;5095244;28;20447;-72
2021/09/23 08:58:58;;;;;;;18.17;11.10;;;;;;;;;;5093244;28;20859;-71
2021/09/23 09:01:32;;;;;;;19.20;11.40;;;;;;;;;;5094707;28;20498;-73
2021/09/23 09:04:06;;;;;;;17.57;12.37;;;;;;;;;;5086368;28;20811;-71
2021/09/23 09:06:35;;;;;;;18.50;11.67;;;;;;;;;;5094367;28;20466;-71
2021/09/23 09:09:04;;;;;;;20.57;11.40;;;;;;;;;;5096083;28;20542;-71
2021/09/23 09:11:43;;;;;;;14.43;9.07;;;;;;;;;;5095644;28;20451;-72
2021/09/23 09:14:27;;;;;;;17.53;9.40;;;;;;;;;;5093765;28;20763;-71
2021/09/23 09:17:02;;;;;;;18.27;12.73;;;;;;;;;;5095610;28;20482;-71
2021/09/23 09:19:46;;;;;;;20.50;11.40;;;;;;;;;;5094721;28;20893;-72
2021/09/23 09:22:15;;;;;;;16.03;8.80;;;;;;;;;;5096014;28;20505;-71
2021/09/23 09:24:53;;;;;;;17.60;10.17;;;;;;;;;;5094681;28;20821;-72
2021/09/23 09:27:30;;;;;;;20.13;11.30;;;;;;;;;;5092202;28;20475;-72
2021/09/23 09:30:06;;;;;;;14.70;10.43;;;;;;;;;;5093064;28;21041;-73
2021/09/23 09:32:36;;;;;;;14.10;10.47;;;;;;;;;;5094953;28;20447;-72
2021/09/23 09:35:04;;;;;;;16.03;10.93;;;;;;;;;;5092921;28;20443;-72
2021/09/23 09:37:36;;;;;;;15.83;11.43;;;;;;;;;;5092176;28;20886;-72
2021/09/23 09:40:05;;;;;;;17.10;10.43;;;;;;;;;;5093797;28;20487;-72
2021/09/23 09:42:38;;;;;;;14.87;10.63;;;;;;;;;;5094750;28;20448;-72
2021/09/23 09:45:09;;;;;;;12.70;9.47;;;;;;;;;;5094378;28;20494;-71
2021/09/23 09:47:40;;;;;;;12.20;8.50;;;;;;;;;;5094696;28;20538;-74
2021/09/23 09:50:12;;;;;;;17.87;11.27;;;;;;;;;;5094234;28;20455;-72
2021/09/23 09:52:42;;;;;;;13.90;11.47;;;;;;;;;;5093471;28;20448;-73
2021/09/23 09:55:12;;;;;;;15.27;10.83;;;;;;;;;;5093159;28;21398;-72
2021/09/23 09:57:47;;;;;;;16.87;11.30;;;;;;;;;;5093864;28;20456;-72
2021/09/23 10:00:19;;;;;;;15.07;10.20;;;;;;;;;;5090378;28;20519;-73
2021/09/23 10:02:55;;;;;;;19.10;11.30;;;;;;;;;;5088106;28;20455;-73
2021/09/23 10:05:35;;;;;;;17.30;11.80;;;;;;;;;;5094872;28;20763;-71
2021/09/23 10:08:15;;;;;;;18.20;10.60;;;;;;;;;;5093216;28;20474;-72
2021/09/23 10:10:44;;;;;;;15.77;11.60;;;;;;;;;;5093812;28;20753;-72
2021/09/23 10:13:22;;;;;;;18.87;12.00;;;;;;;;;;5093732;28;20487;-73
2021/09/23 10:15:56;;;;;;;16.97;10.33;;;;;;;;;;5093988;28;20517;-72
2021/09/23 10:18:26;;;;;;;14.83;10.43;;;;;;;;;;5094630;28;20473;-74
2021/09/23 10:20:58;;;;;;;17.23;12.20;;;;;;;;;;5092998;28;20440;-73
2021/09/23 10:23:57;;;;;;;18.53;12.60;;;;;;;;;;5095086;28;20464;-72
2021/09/23 10:26:32;;;;;;;19.57;12.13;;;;;;;;;;5078899;28;20456;-73
2021/09/23 10:29:03;;;;;;;14.07;11.00;;;;;;;;;;5094521;28;20447;-73
2021/09/23 10:37:22;;;;;;;;;;;;;;;;;;;;;
2021/09/23 10:40:09;;;;;;;14.93;10.37;;;;;;;;;;5094357;28;20444;-72
2021/09/23 10:42:46;;;;;;;20.90;12.20;;;;;;;;;;5092938;28;20520;-72
2021/09/23 10:45:19;;;;;;;14.87;12.27;;;;;;;;;;5094074;28;20897;-72
2021/09/23 10:47:59;;;;;;;16.40;11.27;;;;;;;;;;5093691;28;20448;-71
2021/09/23 10:50:33;;;;;;;15.37;10.53;;;;;;;;;;5092122;28;20454;-73
2021/09/23 10:53:06;;;;;;;11.70;8.93;;;;;;;;;;5085739;28;20570;-72
2021/09/23 10:55:41;;;;;;;12.60;9.60;;;;;;;;;;5092576;28;20468;-72
2021/09/23 10:58:10;;;;;;;9.70;7.70;;;;;;;;;;5093757;28;20462;-72
2021/09/23 11:00:49;;;;;;;12.60;10.80;;;;;;;;;;5093777;28;20487;-72
2021/09/23 11:09:55;;;;;;;;;;;;;;;;;;;;;
2021/09/23 11:12:35;;;;;;;14.50;11.17;;;;;;;;;;5078404;28;20552;-76
2021/09/23 11:15:06;;;;;;;10.53;6.90;;;;;;;;;;5092825;28;20451;-73
2021/09/23 11:17:39;;;;;;;12.60;8.50;;;;;;;;;;5088027;28;20452;-73
2021/09/23 11:20:24;;;;;;;;;;;;;;;;;;;;;
2021/09/23 11:23:07;;;;;;;12.87;8.03;;;;;;;;;;5094164;28;20501;-74
2021/09/23 11:25:48;;;;;;;9.37;7.90;;;;;;;;;;5093620;28;20514;-73
2021/09/23 11:28:16;;;;;;;8.50;5.93;;;;;;;;;;5094423;28;20714;-74
2021/09/23 11:33:36;;;;;;;16.47;7.83;;;;;;;;;;5089458;28;20427;-73
2021/09/23 11:36:10;;;;;;;10.70;7.90;;;;;;;;;;5094836;28;20443;-71
2021/09/23 11:38:40;;;;;;;14.90;8.47;;;;;;;;;;5094034;28;20540;-72
2021/09/23 11:41:27;;;;;;;;;;;;;;;;;;;;;
2021/09/23 11:44:00;;;;;;;12.57;9.27;;;;;;;;;;5095361;28;20957;-73
2021/09/23 11:46:36;;;;;;;9.33;5.70;;;;;;;;;;5113278;28;20474;-72
2021/09/23 11:49:07;;;;;;;14.43;7.90;;;;;;;;;;5105102;28;20459;-72
2021/09/23 11:51:57;;;;;;;10.77;7.87;;;;;;;;;;5092710;28;20551;-72
2021/09/23 11:54:41;;;;;;;8.67;6.70;;;;;;;;;;5092340;28;20802;-74
2021/09/23 11:57:20;;;;;;;12.03;7.57;;;;;;;;;;5094288;28;20939;-74
2021/09/23 11:59:57;;;;;;;11.40;8.73;;;;;;;;;;5094157;28;20751;-73
2021/09/23 12:05:35;;;;;;;10.07;7.23;;;;;;;;;;5059278;28;20696;-72
2021/09/23 12:08:22;;;;;;;9.93;7.97;;;;;;;;;;5097116;28;20500;-72
2021/09/23 12:10:54;;;;;;;11.03;7.07;;;;;;;;;;5096281;28;20459;-72
2021/09/23 12:13:36;;;;;;;10.90;7.20;;;;;;;;;;5096025;28;20452;-73
2021/09/23 12:16:08;;;;;;;9.97;7.90;;;;;;;;;;5096419;28;20443;-72
2021/09/23 12:18:40;;;;;;;12.00;8.10;;;;;;;;;;5097145;28;20540;-73
2021/09/23 12:21:11;;;;;;;9.33;7.43;;;;;;;;;;5095965;28;21102;-72
2021/09/23 12:23:40;;;;;;;11.77;8.50;;;;;;;;;;5095827;28;20452;-72
2021/09/23 12:26:27;;;;;;;13.50;8.27;;;;;;;;;;5097101;28;20495;-73
2021/09/23 12:29:01;;;;;;;10.13;7.43;;;;;;;;;;5096327;28;20443;-73
2021/09/23 12:31:42;;;;;;;12.13;7.23;;;;;;;;;;5096547;28;20993;-72
2021/09/23 12:34:11;;;;;;;10.90;9.00;;;;;;;;;;5096481;28;20470;-72
2021/09/23 12:36:42;;;;;;;9.57;8.20;;;;;;;;;;5096009;28;20983;-71
2021/09/23 12:39:18;;;;;;;11.57;9.70;;;;;;;;;;5096844;28;21099;-74
2021/09/23 12:42:03;;;;;;;15.03;7.80;;;;;;;;;;5095960;28;20893;-72
2021/09/23 12:44:32;;;;;;;11.10;7.03;;;;;;;;;;5094246;28;20495;-72
2021/09/23 12:47:04;;;;;;;14.77;8.03;;;;;;;;;;5079845;28;20484;-72
2021/09/23 12:49:35;;;;;;;10.33;7.53;;;;;;;;;;5082153;28;20895;-72
2021/09/23 12:52:19;;;;;;;10.83;7.07;;;;;;;;;;5091290;28;20839;-72
2021/09/23 12:54:52;;;;;;;11.03;8.37;;;;;;;;;;5086878;28;20529;-72
2021/09/23 12:57:21;;;;;;;13.50;10.10;;;;;;;;;;5083100;28;20475;-72
2021/09/23 12:59:50;;;;;;;18.43;9.40;;;;;;;;;;5095196;28;20480;-71
2021/09/23 13:02:20;;;;;;;9.00;6.77;;;;;;;;;;5097570;28;20442;-73
2021/09/23 13:05:09;;;;;;;11.33;8.37;;;;;;;;;;5094119;28;20458;-72
2021/09/23 13:07:54;;;;;;;9.17;7.60;;;;;;;;;;5103349;28;21065;-72
2021/09/23 13:10:23;;;;;;;9.83;7.60;;;;;;;;;;5075756;28;20456;-71
2021/09/23 13:13:04;;;;;;;9.80;6.70;;;;;;;;;;5093349;28;20440;-72
2021/09/23 13:15:38;;;;;;;10.50;6.37;;;;;;;;;;5092529;28;20498;-70
2021/09/23 13:18:08;;;;;;;14.40;7.10;;;;;;;;;;5094966;28;20456;-70
2021/09/23 13:20:37;;;;;;;19.93;7.90;;;;;;;;;;5096160;28;20459;-71
2021/09/23 13:23:14;;;;;;;9.70;6.00;;;;;;;;;;5096442;28;20742;-71
2021/09/23 13:25:45;;;;;;;8.57;6.07;;;;;;;;;;5095525;28;20487;-72
2021/09/23 13:28:20;;;;;;;9.80;6.73;;;;;;;;;;5094757;28;20470;-73
2021/09/23 13:30:51;;;;;;;8.67;6.27;;;;;;;;;;5093872;28;20557;-70
2021/09/23 13:33:20;;;;;;;8.37;6.33;;;;;;;;;;5087386;28;20763;-72
2021/09/23 13:35:53;;;;;;;11.07;7.37;;;;;;;;;;5087906;28;20573;-71
2021/09/23 13:38:23;;;;;;;8.03;6.10;;;;;;;;;;5094007;28;20877;-71
2021/09/23 13:40:56;;;;;;;15.60;7.10;;;;;;;;;;5094008;28;20460;-71
2021/09/23 13:43:26;;;;;;;8.23;5.83;;;;;;;;;;5091372;28;20459;-72
2021/09/23 13:45:55;;;;;;;7.33;5.30;;;;;;;;;;5092723;28;20804;-73
2021/09/23 13:48:36;;;;;;;9.50;6.73;;;;;;;;;;5093282;28;20451;-72
2021/09/23 13:51:09;;;;;;;8.93;5.63;;;;;;;;;;5093857;28;20436;-73
2021/09/23 13:53:44;;;;;;;8.93;5.60;;;;;;;;;;5090866;28;20545;-72
2021/09/23 13:56:13;;;;;;;6.10;5.50;;;;;;;;;;5093692;28;20439;-72
2021/09/23 13:58:43;;;;;;;7.63;6.47;;;;;;;;;;5093228;28;20491;-72
2021/09/23 14:01:18;;;;;;;10.47;5.87;;;;;;;;;;5101169;28;20451;-72
2021/09/23 14:03:57;;;;;;;8.70;6.83;;;;;;;;;;5105811;27;20487;-72
2021/09/23 14:06:27;;;;;;;10.60;6.43;;;;;;;;;;5079132;28;20553;-72
2021/09/23 14:09:00;;;;;;;7.70;5.73;;;;;;;;;;5077762;28;20790;-71
2021/09/23 14:11:29;;;;;;;8.67;6.57;;;;;;;;;;5093105;28;20452;-71
2021/09/23 14:13:59;;;;;;;7.50;5.00;;;;;;;;;;5092507;28;20458;-72
2021/09/23 14:16:43;;;;;;;8.93;6.30;;;;;;;;;;5093645;28;20444;-71
2021/09/23 14:19:15;;;;;;;9.40;6.97;;;;;;;;;;5092052;28;20867;-72
2021/09/23 14:21:47;;;;;;;7.80;6.30;;;;;;;;;;5092422;28;20704;-72
2021/09/23 14:24:33;;;;;;;10.20;5.33;;;;;;;;;;5093374;28;20459;-72
2021/09/23 14:27:03;;;;;;;8.53;5.90;;;;;;;;;;5089720;28;20507;-72
2021/09/23 14:29:39;;;;;;;13.43;7.33;;;;;;;;;;5090517;28;20451;-71
2021/09/23 14:32:16;;;;;;;11.33;6.13;;;;;;;;;;5092284;28;20479;-71
2021/09/23 14:34:48;;;;;;;10.73;5.33;;;;;;;;;;5092819;28;20517;-70
2021/09/23 14:37:17;;;;;;;6.90;4.97;;;;;;;;;;5094458;28;20448;-72
2021/09/23 14:39:49;;;;;;;7.03;5.17;;;;;;;;;;5093374;28;20447;-71
2021/09/23 14:42:19;;;;;;;11.60;5.17;;;;;;;;;;5093139;28;20452;-72
2021/09/23 14:44:51;;;;;;;6.57;5.00;;;;;;;;;;5092926;28;20459;-71
2021/09/23 14:47:27;;;;;;;12.33;5.23;;;;;;;;;;5093168;28;20582;-72
2021/09/23 14:50:01;;;;;;;8.77;5.00;;;;;;;;;;5094085;28;20592;-72
2021/09/23 14:52:32;;;;;;;6.33;4.83;;;;;;;;;;5078658;28;20449;-71
2021/09/23 14:55:01;;;;;;;4.87;3.50;;;;;;;;;;5085113;28;20463;-71
2021/09/23 14:57:45;;;;;;;8.60;4.53;;;;;;;;;;5092338;28;20435;-70
2021/09/23 15:00:19;;;;;;;3.50;3.20;;;;;;;;;;5074293;28;20480;-71
2021/09/23 15:02:52;;;;;;;3.83;2.60;;;;;;;;;;5073726;28;20455;-73
2021/09/23 15:05:25;;;;;;;7.20;3.80;;;;;;;;;;5088024;28;20500;-72
2021/09/23 15:07:54;;;;;;;5.50;3.70;;;;;;;;;;5081312;28;20456;-74